sensor_id;sensor_type;location;lat;lon;timestamp;P1;durP1;ratioP1;P2;durP2;ratioP2
4873;SDS011;2451;49.970;9.068;2023-07-08T00:00:51;12.57;;;7.43;;
4873;SDS011;2451;49.970;9.068;2023-07-08T00:03:18;10.55;;;7.30;;
4873;SDS011;2451;49.970;9.068;2023-07-08T00:05:44;11.35;;;7.60;;
4873;SDS011;2451;49.970;9.068;2023-07-08T00:08:12;12.07;;;8.07;;
4873;SDS011;2451;49.970;9.068;2023-07-08T00:10:39;10.68;;;7.35;;
4873;SDS011;2451;49.970;9.068;2023-07-08T00:13:05;12.35;;;7.68;;
4873;SDS011;2451;49.970;9.068;2023-07-08T00:15:31;12.32;;;8.20;;
4873;SDS011;2451;49.970;9.068;2023-07-08T00:18:00;12.25;;;7.70;;
4873;SDS011;2451;49.970;9.068;2023-07-08T00:20:29;11.13;;;8.32;;
4873;SDS011;2451;49.970;9.068;2023-07-08T00:23:08;11.15;;;7.63;;
4873;SDS011;2451;49.970;9.068;2023-07-08T00:25:34;12.40;;;7.57;;
4873;SDS011;2451;49.970;9.068;2023-07-08T00:28:00;12.50;;;7.82;;
4873;SDS011;2451;49.970;9.068;2023-07-08T00:30:26;12.38;;;8.65;;
4873;SDS011;2451;49.970;9.068;2023-07-08T00:32:54;11.95;;;8.20;;
4873;SDS011;2451;49.970;9.068;2023-07-08T00:35:21;14.77;;;8.63;;
4873;SDS011;2451;49.970;9.068;2023-07-08T00:37:48;13.50;;;8.45;;
4873;SDS011;2451;49.970;9.068;2023-07-08T00:40:18;12.65;;;8.05;;
4873;SDS011;2451;49.970;9.068;2023-07-08T00:42:45;11.18;;;8.13;;
4873;SDS011;2451;49.970;9.068;2023-07-08T00:45:18;12.93;;;9.07;;
4873;SDS011;2451;49.970;9.068;2023-07-08T00:47:55;13.13;;;9.30;;
4873;SDS011;2451;49.970;9.068;2023-07-08T00:50:24;13.95;;;8.77;;
4873;SDS011;2451;49.970;9.068;2023-07-08T00:52:50;13.25;;;8.73;;
4873;SDS011;2451;49.970;9.068;2023-07-08T00:55:52;11.32;;;8.25;;
4873;SDS011;2451;49.970;9.068;2023-07-08T00:58:21;17.27;;;8.85;;
4873;SDS011;2451;49.970;9.068;2023-07-08T01:00:50;12.02;;;8.60;;
4873;SDS011;2451;49.970;9.068;2023-07-08T01:03:17;15.02;;;8.30;;
4873;SDS011;2451;49.970;9.068;2023-07-08T01:05:44;12.57;;;8.55;;
4873;SDS011;2451;49.970;9.068;2023-07-08T01:08:11;12.15;;;8.25;;
4873;SDS011;2451;49.970;9.068;2023-07-08T01:10:39;12.25;;;8.63;;
4873;SDS011;2451;49.970;9.068;2023-07-08T01:13:15;12.55;;;8.60;;
4873;SDS011;2451;49.970;9.068;2023-07-08T01:15:42;12.75;;;9.15;;
4873;SDS011;2451;49.970;9.068;2023-07-08T01:18:10;13.82;;;9.07;;
4873;SDS011;2451;49.970;9.068;2023-07-08T01:20:41;13.52;;;8.50;;
4873;SDS011;2451;49.970;9.068;2023-07-08T01:23:07;12.15;;;9.02;;
4873;SDS011;2451;49.970;9.068;2023-07-08T01:25:32;14.93;;;9.50;;
4873;SDS011;2451;49.970;9.068;2023-07-08T01:27:58;14.02;;;8.90;;
4873;SDS011;2451;49.970;9.068;2023-07-08T01:30:24;12.60;;;8.35;;
4873;SDS011;2451;49.970;9.068;2023-07-08T01:32:55;12.95;;;8.65;;
4873;SDS011;2451;49.970;9.068;2023-07-08T01:35:24;13.65;;;8.73;;
4873;SDS011;2451;49.970;9.068;2023-07-08T01:37:51;13.98;;;8.65;;
4873;SDS011;2451;49.970;9.068;2023-07-08T01:42:52;11.40;;;8.40;;
4873;SDS011;2451;49.970;9.068;2023-07-08T01:45:19;12.13;;;8.80;;
4873;SDS011;2451;49.970;9.068;2023-07-08T01:47:47;12.57;;;8.57;;
4873;SDS011;2451;49.970;9.068;2023-07-08T01:50:22;13.20;;;9.27;;
4873;SDS011;2451;49.970;9.068;2023-07-08T01:52:49;14.63;;;9.32;;
4873;SDS011;2451;49.970;9.068;2023-07-08T01:55:20;15.32;;;9.15;;
4873;SDS011;2451;49.970;9.068;2023-07-08T01:57:47;13.15;;;9.20;;
4873;SDS011;2451;49.970;9.068;2023-07-08T02:00:13;14.77;;;9.70;;
4873;SDS011;2451;49.970;9.068;2023-07-08T02:02:38;14.40;;;9.30;;
4873;SDS011;2451;49.970;9.068;2023-07-08T02:05:04;15.23;;;9.65;;
4873;SDS011;2451;49.970;9.068;2023-07-08T02:07:29;13.25;;;9.27;;
4873;SDS011;2451;49.970;9.068;2023-07-08T02:09:55;14.68;;;9.15;;
4873;SDS011;2451;49.970;9.068;2023-07-08T02:12:20;12.80;;;8.73;;
4873;SDS011;2451;49.970;9.068;2023-07-08T02:14:46;15.18;;;9.98;;
4873;SDS011;2451;49.970;9.068;2023-07-08T02:17:11;13.02;;;9.18;;
4873;SDS011;2451;49.970;9.068;2023-07-08T02:19:39;13.07;;;9.15;;
4873;SDS011;2451;49.970;9.068;2023-07-08T02:22:05;15.80;;;9.50;;
4873;SDS011;2451;49.970;9.068;2023-07-08T02:24:30;13.48;;;9.25;;
4873;SDS011;2451;49.970;9.068;2023-07-08T02:26:56;12.32;;;8.40;;
4873;SDS011;2451;49.970;9.068;2023-07-08T02:29:22;12.82;;;9.05;;
4873;SDS011;2451;49.970;9.068;2023-07-08T02:31:47;12.98;;;8.55;;
4873;SDS011;2451;49.970;9.068;2023-07-08T02:34:13;12.88;;;8.55;;
4873;SDS011;2451;49.970;9.068;2023-07-08T02:36:38;13.18;;;9.05;;
4873;SDS011;2451;49.970;9.068;2023-07-08T02:39:04;13.60;;;8.70;;
4873;SDS011;2451;49.970;9.068;2023-07-08T02:41:30;14.20;;;8.52;;
4873;SDS011;2451;49.970;9.068;2023-07-08T02:43:56;13.93;;;8.98;;
4873;SDS011;2451;49.970;9.068;2023-07-08T02:46:21;11.85;;;8.52;;
4873;SDS011;2451;49.970;9.068;2023-07-08T02:48:47;12.63;;;8.40;;
4873;SDS011;2451;49.970;9.068;2023-07-08T02:51:12;12.77;;;8.52;;
4873;SDS011;2451;49.970;9.068;2023-07-08T02:53:38;14.35;;;9.15;;
4873;SDS011;2451;49.970;9.068;2023-07-08T02:56:03;13.43;;;8.60;;
4873;SDS011;2451;49.970;9.068;2023-07-08T02:58:29;13.18;;;9.02;;
4873;SDS011;2451;49.970;9.068;2023-07-08T03:00:55;13.57;;;8.70;;
4873;SDS011;2451;49.970;9.068;2023-07-08T03:03:25;11.77;;;8.73;;
4873;SDS011;2451;49.970;9.068;2023-07-08T03:05:54;13.15;;;8.70;;
4873;SDS011;2451;49.970;9.068;2023-07-08T03:08:24;13.45;;;8.75;;
4873;SDS011;2451;49.970;9.068;2023-07-08T03:10:57;14.10;;;9.05;;
4873;SDS011;2451;49.970;9.068;2023-07-08T03:13:24;13.35;;;8.82;;
4873;SDS011;2451;49.970;9.068;2023-07-08T03:15:50;12.68;;;8.88;;
4873;SDS011;2451;49.970;9.068;2023-07-08T03:18:16;13.48;;;9.23;;
4873;SDS011;2451;49.970;9.068;2023-07-08T03:20:42;14.52;;;9.20;;
4873;SDS011;2451;49.970;9.068;2023-07-08T03:23:11;13.95;;;8.45;;
4873;SDS011;2451;49.970;9.068;2023-07-08T03:25:37;12.50;;;8.98;;
4873;SDS011;2451;49.970;9.068;2023-07-08T03:28:03;12.20;;;8.32;;
4873;SDS011;2451;49.970;9.068;2023-07-08T03:30:32;13.45;;;8.35;;
4873;SDS011;2451;49.970;9.068;2023-07-08T03:32:58;12.43;;;8.57;;
4873;SDS011;2451;49.970;9.068;2023-07-08T03:35:24;12.57;;;8.13;;
4873;SDS011;2451;49.970;9.068;2023-07-08T03:37:51;15.27;;;8.98;;
4873;SDS011;2451;49.970;9.068;2023-07-08T03:40:17;13.50;;;8.90;;
4873;SDS011;2451;49.970;9.068;2023-07-08T03:42:42;11.43;;;8.52;;
4873;SDS011;2451;49.970;9.068;2023-07-08T03:45:08;13.82;;;8.43;;
4873;SDS011;2451;49.970;9.068;2023-07-08T03:47:34;12.85;;;7.97;;
4873;SDS011;2451;49.970;9.068;2023-07-08T03:49:59;13.63;;;8.77;;
4873;SDS011;2451;49.970;9.068;2023-07-08T03:52:25;13.15;;;8.90;;
4873;SDS011;2451;49.970;9.068;2023-07-08T03:54:50;13.68;;;9.30;;
4873;SDS011;2451;49.970;9.068;2023-07-08T03:57:16;13.15;;;8.95;;
4873;SDS011;2451;49.970;9.068;2023-07-08T03:59:41;13.82;;;8.63;;
4873;SDS011;2451;49.970;9.068;2023-07-08T04:02:08;14.73;;;8.63;;
4873;SDS011;2451;49.970;9.068;2023-07-08T04:04:35;11.85;;;8.23;;
4873;SDS011;2451;49.970;9.068;2023-07-08T04:07:02;13.02;;;7.95;;
4873;SDS011;2451;49.970;9.068;2023-07-08T04:09:28;11.32;;;7.97;;
4873;SDS011;2451;49.970;9.068;2023-07-08T04:11:54;12.45;;;8.18;;
4873;SDS011;2451;49.970;9.068;2023-07-08T04:14:19;12.77;;;8.05;;
4873;SDS011;2451;49.970;9.068;2023-07-08T04:16:50;13.07;;;8.05;;
4873;SDS011;2451;49.970;9.068;2023-07-08T04:19:23;12.43;;;7.45;;
4873;SDS011;2451;49.970;9.068;2023-07-08T04:21:49;11.75;;;7.45;;
4873;SDS011;2451;49.970;9.068;2023-07-08T04:24:15;10.65;;;7.13;;
4873;SDS011;2451;49.970;9.068;2023-07-08T04:26:42;12.57;;;8.20;;
4873;SDS011;2451;49.970;9.068;2023-07-08T04:29:15;11.43;;;7.70;;
4873;SDS011;2451;49.970;9.068;2023-07-08T04:31:42;13.40;;;8.02;;
4873;SDS011;2451;49.970;9.068;2023-07-08T04:34:08;11.82;;;8.02;;
4873;SDS011;2451;49.970;9.068;2023-07-08T04:36:34;14.07;;;7.93;;
4873;SDS011;2451;49.970;9.068;2023-07-08T04:39:01;11.50;;;8.00;;
4873;SDS011;2451;49.970;9.068;2023-07-08T04:41:28;13.43;;;8.13;;
4873;SDS011;2451;49.970;9.068;2023-07-08T04:43:53;10.65;;;7.78;;
4873;SDS011;2451;49.970;9.068;2023-07-08T04:49:19;12.85;;;7.93;;
4873;SDS011;2451;49.970;9.068;2023-07-08T04:51:45;12.38;;;7.97;;
4873;SDS011;2451;49.970;9.068;2023-07-08T04:54:11;11.35;;;7.35;;
4873;SDS011;2451;49.970;9.068;2023-07-08T04:56:39;9.98;;;7.57;;
4873;SDS011;2451;49.970;9.068;2023-07-08T04:59:07;11.77;;;6.60;;
4873;SDS011;2451;49.970;9.068;2023-07-08T05:01:34;12.02;;;7.70;;
4873;SDS011;2451;49.970;9.068;2023-07-08T05:03:59;12.43;;;7.60;;
4873;SDS011;2451;49.970;9.068;2023-07-08T05:06:25;12.35;;;7.50;;
4873;SDS011;2451;49.970;9.068;2023-07-08T05:08:51;12.43;;;7.65;;
4873;SDS011;2451;49.970;9.068;2023-07-08T05:11:17;10.88;;;7.78;;
4873;SDS011;2451;49.970;9.068;2023-07-08T05:13:42;10.90;;;7.90;;
4873;SDS011;2451;49.970;9.068;2023-07-08T05:16:08;10.15;;;7.03;;
4873;SDS011;2451;49.970;9.068;2023-07-08T05:18:33;12.32;;;7.05;;
4873;SDS011;2451;49.970;9.068;2023-07-08T05:20:59;12.57;;;7.32;;
4873;SDS011;2451;49.970;9.068;2023-07-08T05:23:24;10.15;;;7.05;;
4873;SDS011;2451;49.970;9.068;2023-07-08T05:25:50;11.38;;;7.28;;
4873;SDS011;2451;49.970;9.068;2023-07-08T05:28:15;9.43;;;6.90;;
4873;SDS011;2451;49.970;9.068;2023-07-08T05:30:41;10.88;;;7.22;;
4873;SDS011;2451;49.970;9.068;2023-07-08T05:33:07;11.32;;;7.35;;
4873;SDS011;2451;49.970;9.068;2023-07-08T05:35:34;11.07;;;7.25;;
4873;SDS011;2451;49.970;9.068;2023-07-08T05:37:59;12.75;;;7.20;;
4873;SDS011;2451;49.970;9.068;2023-07-08T05:40:26;10.05;;;6.70;;
4873;SDS011;2451;49.970;9.068;2023-07-08T05:42:51;15.18;;;7.10;;
4873;SDS011;2451;49.970;9.068;2023-07-08T05:45:17;9.68;;;7.03;;
4873;SDS011;2451;49.970;9.068;2023-07-08T05:47:42;10.57;;;7.32;;
4873;SDS011;2451;49.970;9.068;2023-07-08T05:50:08;10.77;;;7.53;;
4873;SDS011;2451;49.970;9.068;2023-07-08T05:52:33;10.98;;;7.45;;
4873;SDS011;2451;49.970;9.068;2023-07-08T05:54:59;9.80;;;7.20;;
4873;SDS011;2451;49.970;9.068;2023-07-08T05:57:24;12.88;;;6.88;;
4873;SDS011;2451;49.970;9.068;2023-07-08T05:59:50;13.30;;;6.70;;
4873;SDS011;2451;49.970;9.068;2023-07-08T06:02:16;10.95;;;6.40;;
4873;SDS011;2451;49.970;9.068;2023-07-08T06:04:44;11.65;;;6.70;;
4873;SDS011;2451;49.970;9.068;2023-07-08T06:07:10;12.10;;;6.78;;
4873;SDS011;2451;49.970;9.068;2023-07-08T06:09:35;11.00;;;6.75;;
4873;SDS011;2451;49.970;9.068;2023-07-08T06:12:01;9.40;;;6.82;;
4873;SDS011;2451;49.970;9.068;2023-07-08T06:14:27;7.68;;;6.05;;
4873;SDS011;2451;49.970;9.068;2023-07-08T06:16:52;8.80;;;6.40;;
4873;SDS011;2451;49.970;9.068;2023-07-08T06:19:19;8.20;;;6.05;;
4873;SDS011;2451;49.970;9.068;2023-07-08T06:21:45;10.57;;;6.15;;
4873;SDS011;2451;49.970;9.068;2023-07-08T06:24:11;9.82;;;6.00;;
4873;SDS011;2451;49.970;9.068;2023-07-08T06:26:36;9.38;;;5.63;;
4873;SDS011;2451;49.970;9.068;2023-07-08T06:29:02;9.02;;;6.18;;
4873;SDS011;2451;49.970;9.068;2023-07-08T06:31:28;12.43;;;6.10;;
4873;SDS011;2451;49.970;9.068;2023-07-08T06:33:54;8.60;;;5.60;;
4873;SDS011;2451;49.970;9.068;2023-07-08T06:36:20;8.80;;;5.55;;
4873;SDS011;2451;49.970;9.068;2023-07-08T06:38:46;10.77;;;6.03;;
4873;SDS011;2451;49.970;9.068;2023-07-08T06:41:11;9.23;;;5.32;;
4873;SDS011;2451;49.970;9.068;2023-07-08T06:43:36;11.10;;;5.93;;
4873;SDS011;2451;49.970;9.068;2023-07-08T06:46:02;9.95;;;6.00;;
4873;SDS011;2451;49.970;9.068;2023-07-08T06:48:27;9.98;;;5.70;;
4873;SDS011;2451;49.970;9.068;2023-07-08T06:50:54;9.70;;;5.70;;
4873;SDS011;2451;49.970;9.068;2023-07-08T06:53:19;10.05;;;5.30;;
4873;SDS011;2451;49.970;9.068;2023-07-08T06:55:45;8.25;;;5.38;;
4873;SDS011;2451;49.970;9.068;2023-07-08T06:58:11;7.20;;;5.32;;
4873;SDS011;2451;49.970;9.068;2023-07-08T07:00:37;8.82;;;5.55;;
4873;SDS011;2451;49.970;9.068;2023-07-08T07:03:03;10.32;;;6.35;;
4873;SDS011;2451;49.970;9.068;2023-07-08T07:05:28;8.18;;;5.20;;
4873;SDS011;2451;49.970;9.068;2023-07-08T07:07:54;8.68;;;5.28;;
4873;SDS011;2451;49.970;9.068;2023-07-08T07:10:21;8.52;;;5.63;;
4873;SDS011;2451;49.970;9.068;2023-07-08T07:12:46;8.75;;;5.45;;
4873;SDS011;2451;49.970;9.068;2023-07-08T07:15:12;8.63;;;4.78;;
4873;SDS011;2451;49.970;9.068;2023-07-08T07:17:37;8.43;;;5.00;;
4873;SDS011;2451;49.970;9.068;2023-07-08T07:20:03;9.48;;;5.05;;
4873;SDS011;2451;49.970;9.068;2023-07-08T07:22:30;7.18;;;5.25;;
4873;SDS011;2451;49.970;9.068;2023-07-08T07:24:55;8.65;;;5.30;;
4873;SDS011;2451;49.970;9.068;2023-07-08T07:27:21;8.27;;;5.10;;
4873;SDS011;2451;49.970;9.068;2023-07-08T07:29:48;8.50;;;4.90;;
4873;SDS011;2451;49.970;9.068;2023-07-08T07:32:15;6.53;;;4.67;;
4873;SDS011;2451;49.970;9.068;2023-07-08T07:34:42;10.13;;;5.20;;
4873;SDS011;2451;49.970;9.068;2023-07-08T07:37:11;8.23;;;5.30;;
4873;SDS011;2451;49.970;9.068;2023-07-08T07:39:39;9.75;;;5.95;;
4873;SDS011;2451;49.970;9.068;2023-07-08T07:42:05;8.07;;;5.28;;
4873;SDS011;2451;49.970;9.068;2023-07-08T07:44:31;9.02;;;5.22;;
4873;SDS011;2451;49.970;9.068;2023-07-08T07:46:57;6.65;;;4.68;;
4873;SDS011;2451;49.970;9.068;2023-07-08T07:49:22;7.53;;;4.72;;
4873;SDS011;2451;49.970;9.068;2023-07-08T07:51:48;7.18;;;5.32;;
4873;SDS011;2451;49.970;9.068;2023-07-08T07:54:13;9.50;;;5.15;;
4873;SDS011;2451;49.970;9.068;2023-07-08T07:56:40;7.38;;;4.85;;
4873;SDS011;2451;49.970;9.068;2023-07-08T07:59:05;9.02;;;4.93;;
4873;SDS011;2451;49.970;9.068;2023-07-08T08:01:31;7.07;;;4.80;;
4873;SDS011;2451;49.970;9.068;2023-07-08T08:03:56;7.03;;;4.90;;
4873;SDS011;2451;49.970;9.068;2023-07-08T08:06:22;8.45;;;5.53;;
4873;SDS011;2451;49.970;9.068;2023-07-08T08:08:47;10.20;;;5.63;;
4873;SDS011;2451;49.970;9.068;2023-07-08T08:11:14;8.40;;;4.82;;
4873;SDS011;2451;49.970;9.068;2023-07-08T08:13:40;9.13;;;5.43;;
4873;SDS011;2451;49.970;9.068;2023-07-08T08:16:06;8.63;;;5.00;;
4873;SDS011;2451;49.970;9.068;2023-07-08T08:18:32;9.30;;;5.43;;
4873;SDS011;2451;49.970;9.068;2023-07-08T08:20:57;7.53;;;5.38;;
4873;SDS011;2451;49.970;9.068;2023-07-08T08:23:23;8.98;;;5.20;;
4873;SDS011;2451;49.970;9.068;2023-07-08T08:25:49;9.32;;;4.75;;
4873;SDS011;2451;49.970;9.068;2023-07-08T08:28:15;8.75;;;4.93;;
4873;SDS011;2451;49.970;9.068;2023-07-08T08:30:41;7.53;;;5.05;;
4873;SDS011;2451;49.970;9.068;2023-07-08T08:33:06;7.15;;;4.70;;
4873;SDS011;2451;49.970;9.068;2023-07-08T08:35:32;8.10;;;5.07;;
4873;SDS011;2451;49.970;9.068;2023-07-08T08:37:57;8.25;;;5.07;;
4873;SDS011;2451;49.970;9.068;2023-07-08T08:40:23;7.07;;;4.65;;
4873;SDS011;2451;49.970;9.068;2023-07-08T08:43:04;7.78;;;4.63;;
4873;SDS011;2451;49.970;9.068;2023-07-08T08:45:38;8.02;;;5.50;;
4873;SDS011;2451;49.970;9.068;2023-07-08T08:48:13;16.63;;;5.53;;
4873;SDS011;2451;49.970;9.068;2023-07-08T08:50:47;7.68;;;4.97;;
4873;SDS011;2451;49.970;9.068;2023-07-08T08:53:16;10.30;;;4.95;;
4873;SDS011;2451;49.970;9.068;2023-07-08T08:55:46;10.80;;;4.85;;
4873;SDS011;2451;49.970;9.068;2023-07-08T08:58:25;9.52;;;5.10;;
4873;SDS011;2451;49.970;9.068;2023-07-08T09:01:06;11.77;;;5.38;;
4873;SDS011;2451;49.970;9.068;2023-07-08T09:03:55;10.25;;;4.93;;
4873;SDS011;2451;49.970;9.068;2023-07-08T09:06:26;9.55;;;5.90;;
4873;SDS011;2451;49.970;9.068;2023-07-08T09:08:54;7.00;;;5.10;;
4873;SDS011;2451;49.970;9.068;2023-07-08T09:11:25;8.50;;;5.17;;
4873;SDS011;2451;49.970;9.068;2023-07-08T09:14:14;9.25;;;5.07;;
4873;SDS011;2451;49.970;9.068;2023-07-08T09:19:40;7.45;;;5.30;;
4873;SDS011;2451;49.970;9.068;2023-07-08T09:22:16;8.50;;;5.53;;
4873;SDS011;2451;49.970;9.068;2023-07-08T09:27:19;8.35;;;5.53;;
4873;SDS011;2451;49.970;9.068;2023-07-08T09:29:45;7.40;;;5.30;;
4873;SDS011;2451;49.970;9.068;2023-07-08T09:32:14;8.05;;;5.15;;
4873;SDS011;2451;49.970;9.068;2023-07-08T09:34:46;8.52;;;5.53;;
4873;SDS011;2451;49.970;9.068;2023-07-08T09:39:53;7.88;;;5.60;;
4873;SDS011;2451;49.970;9.068;2023-07-08T09:42:20;7.28;;;5.25;;
4873;SDS011;2451;49.970;9.068;2023-07-08T09:44:49;7.65;;;5.63;;
4873;SDS011;2451;49.970;9.068;2023-07-08T09:47:25;9.85;;;5.55;;
4873;SDS011;2451;49.970;9.068;2023-07-08T09:49:56;9.85;;;6.03;;
4873;SDS011;2451;49.970;9.068;2023-07-08T09:52:22;9.77;;;5.93;;
4873;SDS011;2451;49.970;9.068;2023-07-08T09:54:48;8.90;;;5.82;;
4873;SDS011;2451;49.970;9.068;2023-07-08T09:57:22;11.13;;;5.97;;
4873;SDS011;2451;49.970;9.068;2023-07-08T10:00:02;9.50;;;5.78;;
4873;SDS011;2451;49.970;9.068;2023-07-08T10:05:12;8.88;;;6.50;;
4873;SDS011;2451;49.970;9.068;2023-07-08T10:07:53;11.30;;;6.13;;
4873;SDS011;2451;49.970;9.068;2023-07-08T10:10:26;7.65;;;5.40;;
4873;SDS011;2451;49.970;9.068;2023-07-08T10:12:55;7.28;;;5.60;;
4873;SDS011;2451;49.970;9.068;2023-07-08T10:15:27;11.23;;;5.55;;
4873;SDS011;2451;49.970;9.068;2023-07-08T10:17:57;9.02;;;5.55;;
4873;SDS011;2451;49.970;9.068;2023-07-08T10:20:23;10.93;;;5.90;;
4873;SDS011;2451;49.970;9.068;2023-07-08T10:23:00;9.98;;;5.85;;
4873;SDS011;2451;49.970;9.068;2023-07-08T10:25:54;9.73;;;5.85;;
4873;SDS011;2451;49.970;9.068;2023-07-08T10:47:01;7.97;;;5.68;;
4873;SDS011;2451;49.970;9.068;2023-07-08T10:52:49;9.68;;;5.90;;
4873;SDS011;2451;49.970;9.068;2023-07-08T10:55:28;8.60;;;5.78;;
4873;SDS011;2451;49.970;9.068;2023-07-08T11:01:14;9.77;;;5.65;;
4873;SDS011;2451;49.970;9.068;2023-07-08T11:04:13;8.98;;;5.75;;
4873;SDS011;2451;49.970;9.068;2023-07-08T11:06:51;8.93;;;5.53;;
4873;SDS011;2451;49.970;9.068;2023-07-08T11:14:54;8.40;;;5.88;;
4873;SDS011;2451;49.970;9.068;2023-07-08T11:17:29;9.65;;;5.60;;
4873;SDS011;2451;49.970;9.068;2023-07-08T11:20:23;8.05;;;5.63;;
4873;SDS011;2451;49.970;9.068;2023-07-08T11:22:57;8.07;;;5.72;;
4873;SDS011;2451;49.970;9.068;2023-07-08T11:25:29;9.55;;;5.63;;
4873;SDS011;2451;49.970;9.068;2023-07-08T11:27:57;9.25;;;5.50;;
4873;SDS011;2451;49.970;9.068;2023-07-08T11:30:28;8.93;;;5.93;;
4873;SDS011;2451;49.970;9.068;2023-07-08T11:32:59;10.95;;;5.78;;
4873;SDS011;2451;49.970;9.068;2023-07-08T11:36:01;9.13;;;5.88;;
4873;SDS011;2451;49.970;9.068;2023-07-08T11:38:23;8.77;;;5.90;;
4873;SDS011;2451;49.970;9.068;2023-07-08T11:40:50;9.77;;;6.18;;
4873;SDS011;2451;49.970;9.068;2023-07-08T11:43:34;10.75;;;5.57;;
4873;SDS011;2451;49.970;9.068;2023-07-08T11:46:25;7.82;;;5.60;;
4873;SDS011;2451;49.970;9.068;2023-07-08T11:49:05;8.02;;;5.72;;
4873;SDS011;2451;49.970;9.068;2023-07-08T11:51:38;7.82;;;6.13;;
4873;SDS011;2451;49.970;9.068;2023-07-08T11:54:19;9.60;;;5.90;;
4873;SDS011;2451;49.970;9.068;2023-07-08T11:59:26;9.70;;;5.50;;
4873;SDS011;2451;49.970;9.068;2023-07-08T12:02:02;7.85;;;5.88;;
4873;SDS011;2451;49.970;9.068;2023-07-08T12:04:35;8.15;;;5.35;;
4873;SDS011;2451;49.970;9.068;2023-07-08T12:07:20;7.65;;;5.35;;
4873;SDS011;2451;49.970;9.068;2023-07-08T12:09:57;8.30;;;5.57;;
4873;SDS011;2451;49.970;9.068;2023-07-08T12:12:44;8.98;;;5.85;;
4873;SDS011;2451;49.970;9.068;2023-07-08T12:17:57;9.18;;;5.93;;
4873;SDS011;2451;49.970;9.068;2023-07-08T12:20:36;8.48;;;5.78;;
4873;SDS011;2451;49.970;9.068;2023-07-08T12:23:08;7.75;;;5.47;;
4873;SDS011;2451;49.970;9.068;2023-07-08T12:25:46;9.18;;;5.78;;
4873;SDS011;2451;49.970;9.068;2023-07-08T12:28:13;9.32;;;5.63;;
4873;SDS011;2451;49.970;9.068;2023-07-08T12:30:39;7.55;;;5.72;;
4873;SDS011;2451;49.970;9.068;2023-07-08T12:33:18;6.75;;;5.22;;
4873;SDS011;2451;49.970;9.068;2023-07-08T12:35:55;10.73;;;5.65;;
4873;SDS011;2451;49.970;9.068;2023-07-08T12:38:31;8.68;;;5.28;;
4873;SDS011;2451;49.970;9.068;2023-07-08T12:41:01;8.25;;;5.50;;
4873;SDS011;2451;49.970;9.068;2023-07-08T12:43:30;7.82;;;5.85;;
4873;SDS011;2451;49.970;9.068;2023-07-08T12:45:56;8.77;;;5.75;;
4873;SDS011;2451;49.970;9.068;2023-07-08T12:48:21;7.97;;;5.28;;
4873;SDS011;2451;49.970;9.068;2023-07-08T12:50:47;7.72;;;5.60;;
4873;SDS011;2451;49.970;9.068;2023-07-08T12:53:15;8.63;;;5.60;;
4873;SDS011;2451;49.970;9.068;2023-07-08T12:55:41;11.27;;;6.05;;
4873;SDS011;2451;49.970;9.068;2023-07-08T12:58:30;9.40;;;5.63;;
4873;SDS011;2451;49.970;9.068;2023-07-08T13:00:55;8.00;;;5.25;;
4873;SDS011;2451;49.970;9.068;2023-07-08T13:03:24;6.30;;;4.60;;
4873;SDS011;2451;49.970;9.068;2023-07-08T13:05:53;7.25;;;4.65;;
4873;SDS011;2451;49.970;9.068;2023-07-08T13:08:21;7.88;;;4.65;;
4873;SDS011;2451;49.970;9.068;2023-07-08T13:10:57;11.63;;;4.97;;
4873;SDS011;2451;49.970;9.068;2023-07-08T13:13:34;8.48;;;4.82;;
4873;SDS011;2451;49.970;9.068;2023-07-08T13:16:03;8.63;;;5.25;;
4873;SDS011;2451;49.970;9.068;2023-07-08T13:18:39;8.98;;;5.10;;
4873;SDS011;2451;49.970;9.068;2023-07-08T13:21:06;8.40;;;4.78;;
4873;SDS011;2451;49.970;9.068;2023-07-08T13:23:39;7.88;;;5.10;;
4873;SDS011;2451;49.970;9.068;2023-07-08T13:26:12;7.80;;;4.88;;
4873;SDS011;2451;49.970;9.068;2023-07-08T13:28:39;8.88;;;4.68;;
4873;SDS011;2451;49.970;9.068;2023-07-08T13:34:06;9.65;;;4.82;;
4873;SDS011;2451;49.970;9.068;2023-07-08T13:36:35;8.18;;;4.60;;
4873;SDS011;2451;49.970;9.068;2023-07-08T13:39:06;7.60;;;4.88;;
4873;SDS011;2451;49.970;9.068;2023-07-08T13:41:33;11.25;;;5.20;;
4873;SDS011;2451;49.970;9.068;2023-07-08T13:44:03;8.52;;;5.38;;
4873;SDS011;2451;49.970;9.068;2023-07-08T13:46:37;9.48;;;4.55;;
4873;SDS011;2451;49.970;9.068;2023-07-08T13:49:22;8.70;;;5.20;;
4873;SDS011;2451;49.970;9.068;2023-07-08T13:59:34;6.78;;;4.90;;
4873;SDS011;2451;49.970;9.068;2023-07-08T14:02:00;8.45;;;5.03;;
4873;SDS011;2451;49.970;9.068;2023-07-08T14:04:29;7.75;;;4.75;;
4873;SDS011;2451;49.970;9.068;2023-07-08T14:06:57;8.48;;;4.88;;
4873;SDS011;2451;49.970;9.068;2023-07-08T14:09:23;12.55;;;5.03;;
4873;SDS011;2451;49.970;9.068;2023-07-08T14:11:50;8.52;;;4.57;;
4873;SDS011;2451;49.970;9.068;2023-07-08T14:14:16;8.68;;;4.93;;
4873;SDS011;2451;49.970;9.068;2023-07-08T14:16:47;7.82;;;5.10;;
4873;SDS011;2451;49.970;9.068;2023-07-08T14:19:24;9.73;;;4.65;;
4873;SDS011;2451;49.970;9.068;2023-07-08T14:21:56;8.05;;;4.68;;
4873;SDS011;2451;49.970;9.068;2023-07-08T14:24:23;7.72;;;5.03;;
4873;SDS011;2451;49.970;9.068;2023-07-08T14:26:49;9.20;;;5.00;;
4873;SDS011;2451;49.970;9.068;2023-07-08T14:29:14;10.38;;;4.88;;
4873;SDS011;2451;49.970;9.068;2023-07-08T14:31:40;10.70;;;5.03;;
4873;SDS011;2451;49.970;9.068;2023-07-08T14:34:07;8.52;;;5.10;;
4873;SDS011;2451;49.970;9.068;2023-07-08T14:36:35;9.32;;;4.85;;
4873;SDS011;2451;49.970;9.068;2023-07-08T14:39:01;10.63;;;5.35;;
4873;SDS011;2451;49.970;9.068;2023-07-08T14:41:38;9.30;;;5.20;;
4873;SDS011;2451;49.970;9.068;2023-07-08T14:44:08;9.38;;;5.07;;
4873;SDS011;2451;49.970;9.068;2023-07-08T14:46:44;8.60;;;5.13;;
4873;SDS011;2451;49.970;9.068;2023-07-08T14:49:16;10.05;;;4.72;;
4873;SDS011;2451;49.970;9.068;2023-07-08T14:51:44;8.30;;;4.45;;
4873;SDS011;2451;49.970;9.068;2023-07-08T14:54:10;9.75;;;4.50;;
4873;SDS011;2451;49.970;9.068;2023-07-08T14:56:36;9.75;;;4.72;;
4873;SDS011;2451;49.970;9.068;2023-07-08T14:59:02;8.30;;;4.97;;
4873;SDS011;2451;49.970;9.068;2023-07-08T15:01:28;8.65;;;4.97;;
4873;SDS011;2451;49.970;9.068;2023-07-08T15:03:56;10.18;;;4.93;;
4873;SDS011;2451;49.970;9.068;2023-07-08T15:06:22;8.68;;;4.68;;
4873;SDS011;2451;49.970;9.068;2023-07-08T15:08:48;6.80;;;4.60;;
4873;SDS011;2451;49.970;9.068;2023-07-08T15:11:14;9.90;;;4.95;;
4873;SDS011;2451;49.970;9.068;2023-07-08T15:13:41;7.40;;;4.68;;
4873;SDS011;2451;49.970;9.068;2023-07-08T15:16:11;8.57;;;4.47;;
4873;SDS011;2451;49.970;9.068;2023-07-08T15:18:39;7.85;;;4.45;;
4873;SDS011;2451;49.970;9.068;2023-07-08T15:21:07;7.85;;;4.80;;
4873;SDS011;2451;49.970;9.068;2023-07-08T15:23:36;9.73;;;4.60;;
4873;SDS011;2451;49.970;9.068;2023-07-08T15:26:02;8.73;;;5.00;;
4873;SDS011;2451;49.970;9.068;2023-07-08T15:28:37;9.18;;;4.63;;
4873;SDS011;2451;49.970;9.068;2023-07-08T15:31:07;10.43;;;4.70;;
4873;SDS011;2451;49.970;9.068;2023-07-08T15:36:00;8.05;;;4.95;;
4873;SDS011;2451;49.970;9.068;2023-07-08T15:38:25;7.85;;;4.63;;
4873;SDS011;2451;49.970;9.068;2023-07-08T15:40:51;8.25;;;4.68;;
4873;SDS011;2451;49.970;9.068;2023-07-08T15:43:17;7.88;;;4.53;;
4873;SDS011;2451;49.970;9.068;2023-07-08T15:45:43;8.90;;;4.80;;
4873;SDS011;2451;49.970;9.068;2023-07-08T15:48:15;8.07;;;4.38;;
4873;SDS011;2451;49.970;9.068;2023-07-08T15:50:42;8.25;;;4.95;;
4873;SDS011;2451;49.970;9.068;2023-07-08T15:53:08;7.85;;;4.50;;
4873;SDS011;2451;49.970;9.068;2023-07-08T15:55:35;9.93;;;4.90;;
4873;SDS011;2451;49.970;9.068;2023-07-08T15:58:14;8.25;;;4.32;;
4873;SDS011;2451;49.970;9.068;2023-07-08T16:00:51;6.80;;;4.32;;
4873;SDS011;2451;49.970;9.068;2023-07-08T16:03:21;7.45;;;3.88;;
4873;SDS011;2451;49.970;9.068;2023-07-08T16:05:49;10.23;;;4.60;;
4873;SDS011;2451;49.970;9.068;2023-07-08T16:08:15;8.73;;;4.38;;
4873;SDS011;2451;49.970;9.068;2023-07-08T16:10:41;8.55;;;4.32;;
4873;SDS011;2451;49.970;9.068;2023-07-08T16:13:08;7.68;;;4.47;;
4873;SDS011;2451;49.970;9.068;2023-07-08T16:15:35;8.43;;;4.15;;
4873;SDS011;2451;49.970;9.068;2023-07-08T16:18:03;8.53;;;4.60;;
4873;SDS011;2451;49.970;9.068;2023-07-08T16:20:29;10.20;;;4.43;;
4873;SDS011;2451;49.970;9.068;2023-07-08T16:22:57;7.20;;;4.30;;